createdAt,value
2023-02-20T00:02:02.198Z,1009.4
2023-02-20T00:04:50.253Z,1009.5
2023-02-20T00:07:37.637Z,1009.4
2023-02-20T00:10:25.144Z,1009.5
2023-02-20T00:13:13.075Z,1009.4
2023-02-20T00:16:00.671Z,1009.5
2023-02-20T00:18:48.201Z,1009.5
2023-02-20T00:21:35.572Z,1009.4
2023-02-20T00:24:23.277Z,1009.5
2023-02-20T00:27:10.663Z,1009.3
2023-02-20T00:29:58.393Z,1009.4
2023-02-20T00:32:47.258Z,1009.3
2023-02-20T00:35:36.559Z,1009.3
2023-02-20T00:38:24.156Z,1009.3
2023-02-20T00:41:11.490Z,1009.3
2023-02-20T00:44:00.351Z,1009.2
2023-02-20T00:46:47.742Z,1009.2
2023-02-20T00:49:35.188Z,1009.2
2023-02-20T00:52:22.675Z,1009.1
2023-02-20T00:55:10.357Z,1009
2023-02-20T00:57:58.658Z,1008.9
2023-02-20T01:00:47.039Z,1008.7
2023-02-20T01:03:34.330Z,1008.7
2023-02-20T01:06:21.736Z,1008.7
2023-02-20T01:09:09.185Z,1008.8
2023-02-20T01:11:56.613Z,1008.9
2023-02-20T01:14:44.880Z,1008.9
2023-02-20T01:17:32.243Z,1008.9
2023-02-20T01:20:19.674Z,1008.9
2023-02-20T01:23:07.215Z,1008.8
2023-02-20T01:25:55.067Z,1008.8
2023-02-20T01:28:42.411Z,1008.7
2023-02-20T01:31:30.573Z,1008.6
2023-02-20T01:34:18.023Z,1008.6
2023-02-20T01:37:06.536Z,1008.5
2023-02-20T01:39:59.025Z,1008.6
2023-02-20T01:42:47.519Z,1008.6
2023-02-20T01:45:35.261Z,1008.6
2023-02-20T01:48:24.753Z,1008.5
2023-02-20T01:51:12.215Z,1008.5
2023-02-20T01:54:00.191Z,1008.4
2023-02-20T01:56:48.645Z,1008.5
2023-02-20T01:59:38.750Z,1008.3
2023-02-20T02:02:27.798Z,1008.3
2023-02-20T02:05:20.249Z,1008.6
2023-02-20T02:08:08.463Z,1008.5
2023-02-20T02:10:58.325Z,1008.3
2023-02-20T02:13:48.503Z,1008.2
2023-02-20T02:16:36.042Z,1008.1
2023-02-20T02:19:32.524Z,1008
2023-02-20T02:23:06.409Z,1007.9
2023-02-20T02:26:22.735Z,1007.8
2023-02-20T02:29:28.672Z,1007.7
2023-02-20T02:32:39.911Z,1007.7
2023-02-20T02:35:45.724Z,1007.7
2023-02-20T02:39:05.060Z,1007.7
2023-02-20T02:42:01.611Z,1007.8
2023-02-20T02:45:00.003Z,1007.9
2023-02-20T02:47:57.321Z,1007.9
2023-02-20T02:50:51.496Z,1008
2023-02-20T02:53:42.220Z,1007.9
2023-02-20T02:56:49.866Z,1007.8
2023-02-20T02:59:39.905Z,1007.8
2023-02-20T03:02:29.542Z,1007.7
2023-02-20T03:05:23.266Z,1007.6
2023-02-20T03:08:24.775Z,1007.7
2023-02-20T03:11:16.780Z,1007.6
2023-02-20T03:14:06.125Z,1007.6
2023-02-20T03:17:29.262Z,1007.5
2023-02-20T03:20:22.802Z,1007.4
2023-02-20T03:23:10.292Z,1007.5
2023-02-20T03:26:03.012Z,1007.4
2023-02-20T03:28:54.335Z,1007.5
2023-02-20T03:31:46.938Z,1007.5
2023-02-20T03:35:10.432Z,1007.4
2023-02-20T03:38:31.397Z,1007.4
2023-02-20T03:41:54.257Z,1007.4
2023-02-20T03:45:16.525Z,1007.4
2023-02-20T03:48:07.773Z,1007.4
2023-02-20T03:51:00.574Z,1007.4
2023-02-20T03:54:21.162Z,1007.4
2023-02-20T03:57:08.792Z,1007.4
2023-02-20T04:00:00.937Z,1007.4
2023-02-20T04:02:53.723Z,1007.4
2023-02-20T04:05:47.777Z,1007.2
2023-02-20T04:08:39.744Z,1007.2
2023-02-20T04:11:31.574Z,1007.3
2023-02-20T04:14:24.154Z,1007.2
2023-02-20T04:17:14.212Z,1007.2
2023-02-20T04:20:06.431Z,1007.3
2023-02-20T04:22:54.892Z,1007.2
2023-02-20T04:25:47.550Z,1007.1
2023-02-20T04:28:38.907Z,1007
2023-02-20T04:31:26.841Z,1007.1
2023-02-20T04:34:14.301Z,1007
2023-02-20T04:37:01.771Z,1007.1
2023-02-20T04:39:53.493Z,1007
2023-02-20T04:42:40.956Z,1007
2023-02-20T04:45:28.279Z,1007
2023-02-20T04:48:15.769Z,1006.9
2023-02-20T04:51:03.321Z,1006.9
2023-02-20T04:53:51.502Z,1006.7
2023-02-20T04:56:38.836Z,1006.7
2023-02-20T04:59:26.284Z,1006.8
2023-02-20T05:02:13.638Z,1006.4
2023-02-20T05:05:01.029Z,1006.4
2023-02-20T05:07:48.979Z,1006.3
2023-02-20T05:10:40.322Z,1006.3
2023-02-20T05:13:27.747Z,1006.3
2023-02-20T05:16:15.717Z,1006.4
2023-02-20T05:19:03.377Z,1006.4
2023-02-20T05:21:50.899Z,1006.2
2023-02-20T05:25:10.088Z,1006.2
2023-02-20T05:27:58.830Z,1006
2023-02-20T05:30:47.352Z,1006
2023-02-20T05:33:35.000Z,1005.9
2023-02-20T05:36:22.393Z,1005.9
2023-02-20T05:39:09.670Z,1005.9
2023-02-20T05:41:57.000Z,1005.9
2023-02-20T05:44:45.554Z,1005.8
2023-02-20T05:47:34.224Z,1005.8
2023-02-20T05:50:22.987Z,1005.7
2023-02-20T05:53:10.218Z,1005.7
2023-02-20T05:55:57.769Z,1005.8
2023-02-20T05:58:46.230Z,1005.7
2023-02-20T06:01:34.256Z,1005.5
2023-02-20T06:04:21.816Z,1005.6
2023-02-20T06:07:09.254Z,1005.5
2023-02-20T06:09:58.157Z,1005.4
2023-02-20T06:12:46.919Z,1005.3
2023-02-20T06:15:34.228Z,1005.3
2023-02-20T06:18:21.505Z,1005.4
2023-02-20T06:21:08.727Z,1005.5
2023-02-20T06:23:56.679Z,1005.4
2023-02-20T06:26:44.729Z,1005.4
2023-02-20T06:29:32.454Z,1005.2
2023-02-20T06:32:19.812Z,1005.1
2023-02-20T06:35:07.370Z,1005
2023-02-20T06:37:54.899Z,1005.1
2023-02-20T06:40:42.289Z,1004.9
2023-02-20T06:43:29.711Z,1005
2023-02-20T06:46:17.313Z,1005
2023-02-20T06:49:07.222Z,1005
2023-02-20T06:51:55.633Z,1004.9
2023-02-20T06:54:42.911Z,1004.7
2023-02-20T06:57:30.267Z,1004.7
2023-02-20T07:00:17.742Z,1004.7
2023-02-20T07:03:05.809Z,1004.6
2023-02-20T07:05:53.630Z,1004.5
2023-02-20T07:08:40.995Z,1004.5
2023-02-20T07:11:28.492Z,1004.4
2023-02-20T07:14:15.790Z,1004.3
2023-02-20T07:17:03.270Z,1004.1
2023-02-20T07:19:50.947Z,1004.1
2023-02-20T07:22:38.321Z,1004
2023-02-20T07:25:33.767Z,1003.9
2023-02-20T07:28:21.157Z,1004
2023-02-20T07:31:08.556Z,1003.9
2023-02-20T07:33:55.867Z,1003.8
2023-02-20T07:36:43.398Z,1003.8
2023-02-20T07:39:30.988Z,1003.7
2023-02-20T07:42:18.370Z,1003.7
2023-02-20T07:45:05.755Z,1003.7
2023-02-20T07:47:54.704Z,1003.6
2023-02-20T07:50:42.231Z,1003.7
2023-02-20T07:53:29.681Z,1003.9
2023-02-20T07:56:17.002Z,1003.6
2023-02-20T07:59:06.121Z,1003.6
2023-02-20T08:01:54.830Z,1003.5
2023-02-20T08:04:42.226Z,1003.4
2023-02-20T08:07:29.603Z,1003.4
2023-02-20T08:10:16.950Z,1003.4
2023-02-20T08:13:07.797Z,1003.3
2023-02-20T08:15:55.314Z,1003.2
2023-02-20T08:18:43.225Z,1003.4
2023-02-20T08:21:30.531Z,1003.3
2023-02-20T08:24:17.858Z,1003.4
2023-02-20T08:27:05.258Z,1003.3
2023-02-20T08:29:52.598Z,1003.3
2023-02-20T08:32:40.139Z,1003.1
2023-02-20T08:35:27.568Z,1003
2023-02-20T08:38:14.920Z,1002.8
2023-02-20T08:41:13.394Z,1002.8
2023-02-20T08:44:01.037Z,1002.7
2023-02-20T08:46:48.982Z,1002.7
2023-02-20T08:49:37.136Z,1002.6
2023-02-20T08:52:24.523Z,1002.5
2023-02-20T08:55:12.223Z,1002.4
2023-02-20T08:57:59.993Z,1002.5
2023-02-20T09:00:48.666Z,1002.6
2023-02-20T09:03:37.467Z,1002.4
2023-02-20T09:06:26.435Z,1002.3
2023-02-20T09:09:14.244Z,1002.1
2023-02-20T09:12:01.799Z,1002.2
2023-02-20T09:14:49.784Z,1001.9
2023-02-20T09:17:37.155Z,1001.8
2023-02-20T09:20:24.718Z,1001.8
2023-02-20T09:23:12.246Z,1002
2023-02-20T09:25:59.923Z,1001.7
2023-02-20T09:28:48.219Z,1001.4
2023-02-20T09:31:35.896Z,1001
2023-02-20T09:34:23.339Z,1000.9
2023-02-20T09:37:11.579Z,1000.9
2023-02-20T09:39:59.506Z,1001
2023-02-20T09:42:48.309Z,1001.1
2023-02-20T09:45:50.716Z,1000.8
2023-02-20T09:48:42.986Z,1000.7
2023-02-20T09:51:44.780Z,1000.9
2023-02-20T09:54:38.015Z,1000.7
2023-02-20T09:57:29.277Z,1000.9
2023-02-20T10:00:18.189Z,1000.9
2023-02-20T10:03:12.319Z,1000.7
2023-02-20T10:06:07.745Z,1000.6
2023-02-20T10:09:02.062Z,1000.4
2023-02-20T10:11:56.128Z,1000.4
2023-02-20T10:14:56.305Z,1000.2
2023-02-20T10:18:05.237Z,1000
2023-02-20T10:21:05.672Z,999.9
2023-02-20T10:24:06.007Z,999.9
2023-02-20T10:27:09.072Z,999.7
2023-02-20T10:30:08.501Z,999.7
2023-02-20T10:33:00.995Z,999.5
2023-02-20T10:36:04.507Z,999.3
2023-02-20T10:39:01.539Z,999.5
2023-02-20T10:41:53.065Z,999.3
2023-02-20T10:44:52.026Z,999.4
2023-02-20T10:47:48.236Z,999.3
2023-02-20T10:50:43.634Z,999.3
2023-02-20T10:53:38.733Z,999.3
2023-02-20T10:56:33.809Z,999.3
2023-02-20T10:59:26.505Z,999.1
2023-02-20T11:02:19.429Z,999
2023-02-20T11:05:09.354Z,999
2023-02-20T11:08:00.402Z,998.9
2023-02-20T11:10:49.002Z,999
2023-02-20T11:13:42.823Z,998.9
2023-02-20T11:16:30.252Z,998.6
2023-02-20T11:19:21.926Z,998.7
2023-02-20T11:22:15.505Z,998.6
2023-02-20T11:25:22.706Z,998.8
2023-02-20T11:28:14.026Z,998.7
2023-02-20T11:31:07.193Z,998.5
2023-02-20T11:33:55.062Z,998.4
2023-02-20T11:36:42.784Z,998.4
2023-02-20T11:39:34.323Z,998.3
2023-02-20T11:42:21.857Z,998.3
2023-02-20T11:45:09.698Z,998.3
2023-02-20T11:48:01.051Z,998.5
2023-02-20T11:50:54.673Z,998.2
2023-02-20T11:53:42.065Z,998.2
2023-02-20T11:56:29.434Z,998.3
2023-02-20T11:59:16.866Z,998.2
2023-02-20T12:02:14.469Z,997.9
2023-02-20T12:05:10.146Z,998
2023-02-20T12:08:00.573Z,997.9
2023-02-20T12:10:48.301Z,997.9
2023-02-20T12:13:38.376Z,997.9
2023-02-20T12:16:28.603Z,998
2023-02-20T12:19:29.143Z,997.9
2023-02-20T12:22:30.440Z,997.9
2023-02-20T12:25:20.808Z,997.9
2023-02-20T12:28:13.176Z,997.9
2023-02-20T12:31:09.260Z,997.9
2023-02-20T12:34:11.780Z,997.8
2023-02-20T12:37:15.242Z,997.9
2023-02-20T12:40:16.352Z,997.9
2023-02-20T12:43:22.657Z,997.7
2023-02-20T12:46:21.530Z,997.7
2023-02-20T12:49:15.198Z,997.6
2023-02-20T12:52:20.361Z,997.7
2023-02-20T12:55:29.527Z,997.6
2023-02-20T12:58:29.141Z,997.6
2023-02-20T13:01:39.083Z,997.3
2023-02-20T13:04:27.439Z,997.3
2023-02-20T13:07:23.822Z,997.1
2023-02-20T13:10:18.928Z,997.3
2023-02-20T13:13:08.951Z,997.3
2023-02-20T13:15:56.792Z,997.2
2023-02-20T13:18:50.029Z,997.2
2023-02-20T13:21:44.264Z,997.3
2023-02-20T13:24:32.044Z,997
2023-02-20T13:27:21.356Z,997.1
2023-02-20T13:30:17.314Z,997.2
2023-02-20T13:33:06.736Z,997
2023-02-20T13:36:02.420Z,996.9
2023-02-20T13:38:51.363Z,997.1
2023-02-20T13:42:15.849Z,996.8
2023-02-20T13:45:13.327Z,997
2023-02-20T13:48:55.788Z,996.9
2023-02-20T13:51:43.389Z,997
2023-02-20T13:54:30.858Z,997
2023-02-20T13:57:19.527Z,996.9
2023-02-20T14:00:08.357Z,996.8
2023-02-20T14:03:08.899Z,996.8
2023-02-20T14:05:58.134Z,996.8
2023-02-20T14:08:51.321Z,996.9
2023-02-20T14:11:54.332Z,996.9
2023-02-20T14:14:50.725Z,996.8
2023-02-20T14:17:38.299Z,996.7
2023-02-20T14:20:27.752Z,996.8
2023-02-20T14:23:20.637Z,996.8
2023-02-20T14:26:12.193Z,996.8
2023-02-20T14:29:09.758Z,996.8
2023-02-20T14:32:06.992Z,996.6
2023-02-20T14:34:59.314Z,996.9
2023-02-20T14:37:55.513Z,996.5
2023-02-20T14:40:55.812Z,996.4
2023-02-20T14:43:44.339Z,996.5
2023-02-20T14:46:40.672Z,996.5
2023-02-20T14:49:28.042Z,996.5
2023-02-20T14:52:16.176Z,996.5
2023-02-20T14:55:07.722Z,996.7
2023-02-20T14:58:01.706Z,996.5
2023-02-20T15:00:51.972Z,996.6
2023-02-20T15:03:40.804Z,996.4
2023-02-20T15:06:28.410Z,996.9
2023-02-20T15:09:23.147Z,996.5
2023-02-20T15:12:21.242Z,996.6
2023-02-20T15:15:12.391Z,996.6
2023-02-20T15:18:00.912Z,996.4
2023-02-20T15:20:53.830Z,996.4
2023-02-20T15:23:41.248Z,996.4
2023-02-20T15:26:30.731Z,996.4
2023-02-20T15:29:21.937Z,996.5
2023-02-20T15:32:12.526Z,996.3
2023-02-20T15:35:04.904Z,996.2
2023-02-20T15:38:00.810Z,996.1
2023-02-20T15:40:53.868Z,996.2
2023-02-20T15:43:47.455Z,996.4
2023-02-20T15:46:36.591Z,996.4
2023-02-20T15:49:24.709Z,996.2
2023-02-20T15:52:12.015Z,996.4
2023-02-20T15:55:04.126Z,996.3
2023-02-20T15:57:52.082Z,996.4
2023-02-20T16:00:41.641Z,996.3
2023-02-20T16:03:31.753Z,996.4
2023-02-20T16:06:21.497Z,996.5
2023-02-20T16:09:09.655Z,996.4
2023-02-20T16:11:57.209Z,996.6
2023-02-20T16:14:45.246Z,996.5
2023-02-20T16:17:38.225Z,996.4
2023-02-20T16:20:25.622Z,996.7
2023-02-20T16:23:15.371Z,996.6
2023-02-20T16:26:02.740Z,996.6
2023-02-20T16:28:50.545Z,996.6
2023-02-20T16:31:41.622Z,996.6
2023-02-20T16:35:03.290Z,996.6
2023-02-20T16:37:51.209Z,996.7
2023-02-20T16:40:38.589Z,996.6
2023-02-20T16:43:26.173Z,996.5
2023-02-20T16:46:13.908Z,996.6
2023-02-20T16:49:01.552Z,996.7
2023-02-20T16:51:49.397Z,996.7
2023-02-20T16:54:45.772Z,996.8
2023-02-20T16:57:34.669Z,996.9
2023-02-20T17:00:22.205Z,997
2023-02-20T17:03:12.378Z,996.7
2023-02-20T17:06:00.131Z,996.8
2023-02-20T17:08:49.116Z,996.7
2023-02-20T17:11:36.515Z,996.7
2023-02-20T17:14:23.890Z,997
2023-02-20T17:17:11.349Z,996.7
2023-02-20T17:19:59.702Z,997.2
2023-02-20T17:22:55.577Z,996.9
2023-02-20T17:25:50.267Z,996.9
2023-02-20T17:28:37.758Z,996.9
2023-02-20T17:31:25.890Z,996.9
2023-02-20T17:34:13.187Z,996.8
2023-02-20T17:37:01.222Z,996.9
2023-02-20T17:39:49.530Z,996.9
2023-02-20T17:42:36.916Z,996.8
2023-02-20T17:45:24.556Z,996.9
2023-02-20T17:48:12.287Z,996.9
2023-02-20T17:50:59.874Z,996.9
2023-02-20T17:53:48.396Z,997
2023-02-20T17:56:36.054Z,996.9
2023-02-20T17:59:26.118Z,997
2023-02-20T18:02:14.976Z,997.1
2023-02-20T18:05:03.598Z,996.8
2023-02-20T18:07:51.949Z,996.8
2023-02-20T18:10:39.338Z,997
2023-02-20T18:13:26.745Z,997
2023-02-20T18:16:14.577Z,996.8
2023-02-20T18:19:02.190Z,997
2023-02-20T18:21:49.626Z,996.8
2023-02-20T18:24:37.365Z,996.9
2023-02-20T18:27:24.697Z,996.9
2023-02-20T18:30:12.214Z,996.7
2023-02-20T18:33:01.043Z,996.8
2023-02-20T18:35:58.535Z,996.9
2023-02-20T18:38:54.234Z,996.8
2023-02-20T18:41:42.015Z,997
2023-02-20T18:44:34.779Z,997.1
2023-02-20T18:47:22.442Z,996.8
2023-02-20T18:50:09.984Z,996.9
2023-02-20T18:52:57.493Z,996.9
2023-02-20T18:55:45.805Z,996.7
2023-02-20T18:58:33.262Z,996.7
2023-02-20T19:01:20.733Z,996.3
2023-02-20T19:04:08.828Z,996.6
2023-02-20T19:06:58.045Z,996.6
2023-02-20T19:09:48.189Z,996.5
2023-02-20T19:12:38.731Z,996.5
2023-02-20T19:15:26.205Z,996.5
2023-02-20T19:18:13.781Z,996.6
2023-02-20T19:21:01.390Z,996.5
2023-02-20T19:23:49.052Z,996.3
2023-02-20T19:26:36.530Z,996.3
2023-02-20T19:29:23.912Z,996.1
2023-02-20T19:32:11.449Z,996.2
2023-02-20T19:34:59.122Z,995.9
2023-02-20T19:37:47.563Z,996
2023-02-20T19:40:35.200Z,996.1
2023-02-20T19:43:22.590Z,996.3
2023-02-20T19:46:12.715Z,996.2
2023-02-20T19:49:01.970Z,996.2
2023-02-20T19:51:54.789Z,996.2
2023-02-20T19:54:42.219Z,996.4
2023-02-20T19:57:31.654Z,996.5
2023-02-20T20:00:19.072Z,996.5
2023-02-20T20:03:07.664Z,996.5
2023-02-20T20:05:56.487Z,996.5
2023-02-20T20:09:07.405Z,996.6
2023-02-20T20:11:58.614Z,996.8
2023-02-20T20:14:47.174Z,996.5
2023-02-20T20:17:34.709Z,996.4
2023-02-20T20:20:22.158Z,996.5
2023-02-20T20:23:09.994Z,996.6
2023-02-20T20:25:57.463Z,996.6
2023-02-20T20:28:45.549Z,996.6
2023-02-20T20:31:33.083Z,996.6
2023-02-20T20:34:22.313Z,996.9
2023-02-20T20:37:09.940Z,996.8
2023-02-20T20:39:57.319Z,996.9
2023-02-20T20:42:45.114Z,996.9
2023-02-20T20:45:32.616Z,996.7
2023-02-20T20:48:20.110Z,996.7
2023-02-20T20:51:07.512Z,996.8
2023-02-20T20:53:57.893Z,996.8
2023-02-20T20:56:46.216Z,996.7
2023-02-20T20:59:37.803Z,996.7
2023-02-20T21:02:26.064Z,996.7
2023-02-20T21:05:14.051Z,996.7
2023-02-20T21:08:02.133Z,996.7
2023-02-20T21:10:52.494Z,996.7
2023-02-20T21:13:39.823Z,996.6
2023-02-20T21:16:31.671Z,996.5
2023-02-20T21:19:19.157Z,996.7
2023-02-20T21:22:06.539Z,996.5
2023-02-20T21:24:53.982Z,996.6
2023-02-20T21:27:41.428Z,996.5
2023-02-20T21:30:29.067Z,996.4
2023-02-20T21:33:16.644Z,996.4
2023-02-20T21:36:03.995Z,996.3
2023-02-20T21:38:51.917Z,996.3
2023-02-20T21:41:39.838Z,996.4
2023-02-20T21:44:59.466Z,996.3
2023-02-20T21:47:47.058Z,996.3
2023-02-20T21:50:34.651Z,996.4
2023-02-20T21:53:22.251Z,996.4
2023-02-20T21:56:10.034Z,996.4
2023-02-20T21:58:57.297Z,996.4
2023-02-20T22:01:45.834Z,996.4
2023-02-20T22:04:34.340Z,996.3
2023-02-20T22:07:21.326Z,996.3
2023-02-20T22:10:40.392Z,996.3
2023-02-20T22:13:59.716Z,996.5
2023-02-20T22:17:19.688Z,996.4
2023-02-20T22:20:38.811Z,996.7
2023-02-20T22:23:57.867Z,996.5
2023-02-20T22:27:17.532Z,996.5
2023-02-20T22:30:36.540Z,996.4
2023-02-20T22:33:55.570Z,996.4
2023-02-20T22:37:14.582Z,996.6
2023-02-20T22:40:33.710Z,996.4
2023-02-20T22:43:52.709Z,996.3
2023-02-20T22:47:11.726Z,996.3
2023-02-20T22:50:30.801Z,996.3
2023-02-20T22:53:49.869Z,996.4
2023-02-20T22:57:08.829Z,996.4
2023-02-20T23:00:27.959Z,996.5
2023-02-20T23:03:46.971Z,996.4
2023-02-20T23:07:06.023Z,996.3
2023-02-20T23:10:25.054Z,996.3
2023-02-20T23:13:44.087Z,996.3
2023-02-20T23:17:03.780Z,996.2
2023-02-20T23:20:23.500Z,996.1
2023-02-20T23:23:42.473Z,996.3
2023-02-20T23:27:01.779Z,996.3
2023-02-20T23:30:21.253Z,996.2
2023-02-20T23:33:40.289Z,996.1
2023-02-20T23:36:59.664Z,996.1
2023-02-20T23:40:30.629Z,996.1
2023-02-20T23:43:54.032Z,996
2023-02-20T23:47:13.050Z,996.1
2023-02-20T23:50:32.067Z,996.2
2023-02-20T23:53:51.091Z,996
2023-02-20T23:57:10.149Z,996
